Atmautluak, Alaska
Current Conditions -  °F | °C
As of 11:53 PM on Friday 21 Nov 2014 (Local Time) from PABE Reporting Station
Clear Clear  
Wind Chill:   Ceiling: Unl
Heat Index: 20°   Visibility: 10mi
Dew Point: 15°   Wind: 15mph
Humidity: 81%   Direction: 30°NNE
Pressure: 28.93"   Gusts: NA
Location:  60.7494°N, 161.727°W
Report Text: PABE 220853Z 03013KT 10SM CLR M07/M09 A2893 RMK AO2 SLP799 T10671094 410061067 51012
Loading
Personal Weather Stations






























Interactive Weather Map New forecast layout! Learn more

10-Day Weather Forecast

Advertisements
Track Severe Weather on mobile